Time;durP1;ratioP1;P1;durP2;ratioP2;P2;SDS_P1;SDS_P2;PMS_P1;PMS_P2;Temp;Humidity;BMP_temperature;BMP_pressure;BME280_temperature;BME280_humidity;BME280_pressure;Samples;Min_cycle;Max_cycle;Signal;HPM_P1;HPM_P2
2021/01/30 00:02:08;;;;;;;;;;;;;;;2.72;100.00;99116.84;5052931;28;20411;-82
2021/01/30 00:04:36;;;;;;;;;;;;;;;2.70;100.00;99113.66;5053139;28;19954;-81
2021/01/30 00:07:03;;;;;;;;;;;;;;;2.70;100.00;99105.38;5069600;28;19929;-82
2021/01/30 00:09:30;;;;;;;;;;;;;;;2.69;100.00;99090.81;5052956;28;19932;-82
2021/01/30 00:11:58;;;;;;;;;;;;;;;2.68;100.00;99094.72;5052898;28;20019;-82
2021/01/30 00:14:31;;;;;;;;;;;;;;;2.66;100.00;99097.06;5019929;28;19931;-82
2021/01/30 00:16:59;;;;;;;;;;;;;;;2.66;100.00;99097.06;5052773;28;20596;-82
2021/01/30 00:19:26;;;;;;;;;;;;;;;2.65;100.00;99094.69;5052517;28;19925;-82
2021/01/30 00:21:54;;;;;;;;;;;;;;;2.60;100.00;99081.19;5052454;28;19936;-81
2021/01/30 00:24:21;;;;;;;;;;;;;;;2.59;100.00;99083.16;5054411;28;19925;-82
2021/01/30 00:26:55;;;;;;;;;;;;;;;2.51;100.00;99075.13;5070037;28;20371;-82
2021/01/30 00:29:23;;;;;;;;;;;;;;;2.54;100.00;99077.16;5053038;28;19929;-82
2021/01/30 00:31:50;;;;;;;;;;;;;;;2.48;100.00;99071.16;5053181;28;19924;-82
2021/01/30 00:34:18;;;;;;;;;;;;;;;2.47;100.00;99068.78;5069443;28;19967;-82
2021/01/30 00:36:44;;;;;;;;;;;;;;;2.47;100.00;99068.78;5052721;28;19960;-81
2021/01/30 00:39:11;;;;;;;;;;;;;;;2.45;100.00;99057.31;5052565;28;19925;-82
2021/01/30 00:41:37;;;;;;;;;;;;;;;2.44;100.00;99061.25;5069237;28;19925;-81
2021/01/30 00:44:04;;;;;;;;;;;;;;;2.46;100.00;99062.47;5035937;28;19931;-82
2021/01/30 00:46:31;;;;;;;;;;;;;;;2.44;100.00;99056.50;5052901;28;19931;-81
2021/01/30 00:48:58;;;;;;;;;;;;;;;2.42;100.00;99058.84;5052710;28;19925;-81
2021/01/30 00:51:25;;;;;;;;;;;;;;;2.43;100.00;99049.41;5052800;28;19925;-82
2021/01/30 00:53:56;;;;;;;;;;;;;;;2.47;100.00;99055.00;5069538;28;20014;-82
2021/01/30 00:56:23;;;;;;;;;;;;;;;2.47;100.00;99043.97;5035918;28;19925;-81
2021/01/30 00:58:49;;;;;;;;;;;;;;;2.43;100.00;99034.81;5035784;28;19925;-81
2021/01/30 01:01:16;;;;;;;;;;;;;;;2.42;100.00;99024.97;5086076;28;19929;-81
2021/01/30 01:03:44;;;;;;;;;;;;;;;2.40;100.00;99022.56;5053043;28;19925;-81
2021/01/30 01:06:11;;;;;;;;;;;;;;;2.41;100.00;99018.63;5057545;28;19931;-82
2021/01/30 01:08:37;;;;;;;;;;;;;;;2.40;100.00;99021.78;5056347;28;19924;-82
2021/01/30 01:11:04;;;;;;;;;;;;;;;2.43;100.00;99021.03;5057642;28;20380;-81
2021/01/30 01:13:30;;;;;;;;;;;;;;;2.43;100.00;99015.50;5056169;28;19925;-83
2021/01/30 01:15:57;;;;;;;;;;;;;;;2.41;100.00;99015.88;5040094;28;19925;-80
2021/01/30 01:18:24;;;;;;;;;;;;;;;2.41;100.00;99010.38;5057141;28;19925;-80
2021/01/30 01:20:51;;;;;;;;;;;;;;;2.38;100.00;99018.59;5055949;28;20391;-81
2021/01/30 01:23:18;;;;;;;;;;;;;;;2.40;100.00;99019.00;5039561;28;19925;-81
2021/01/30 01:25:46;;;;;;;;;;;;;;;2.37;100.00;99028.03;5057220;28;19932;-81
2021/01/30 01:28:12;;;;;;;;;;;;;;;2.30;100.00;99009.44;5055918;28;19929;-81
2021/01/30 01:30:39;;;;;;;;;;;;;;;2.31;100.00;99013.75;5056048;28;19931;-81
2021/01/30 01:33:05;;;;;;;;;;;;;;;2.26;100.00;99007.78;5055873;28;20376;-81
2021/01/30 01:35:32;;;;;;;;;;;;;;;2.24;100.00;98990.81;5055804;28;20023;-81
2021/01/30 01:37:59;;;;;;;;;;;;;;;2.16;100.00;98984.38;5055963;28;19925;-81
2021/01/30 01:40:29;;;;;;;;;;;;;;;2.14;100.00;98974.88;5072276;28;19924;-81
2021/01/30 01:42:57;;;;;;;;;;;;;;;2.16;100.00;98970.59;5055809;28;19924;-81
2021/01/30 01:45:33;;;;;;;;;;;;;;;2.11;100.00;98970.09;5040686;28;19931;-81
2021/01/30 01:48:03;;;;;;;;;;;;;;;2.09;100.00;98972.44;5055664;28;19929;-81
2021/01/30 01:50:36;;;;;;;;;;;;;;;2.09;100.00;98961.44;5055599;28;20299;-81
2021/01/30 01:53:11;;;;;;;;;;;;;;;2.06;100.00;98953.91;5055557;28;19932;-81
2021/01/30 01:55:41;;;;;;;;;;;;;;;2.05;100.00;98949.53;5055594;28;20027;-81
2021/01/30 01:58:08;;;;;;;;;;;;;;;2.05;100.00;98963.31;5055397;28;20058;-81
2021/01/30 02:00:35;;;;;;;;;;;;;;;2.05;100.00;98957.81;5038729;28;20066;-81
2021/01/30 02:03:02;;;;;;;;;;;;;;;2.05;100.00;98966.88;5088830;28;20399;-81
2021/01/30 02:05:30;;;;;;;;;;;;;;;1.99;100.00;98967.53;5055404;28;20019;-81
2021/01/30 02:07:59;;;;;;;;;;;;;;;1.96;100.00;98968.28;5055102;28;19932;-81
2021/01/30 02:10:28;;;;;;;;;;;;;;;1.95;100.00;98972.22;5056378;28;19932;-81
2021/01/30 02:13:01;;;;;;;;;;;;;;;2.00;100.00;98960.91;5039429;28;19924;-81
2021/01/30 02:15:28;;;;;;;;;;;;;;;1.95;100.00;98961.19;5071129;28;20295;-81
2021/01/30 02:18:13;;;;;;;;;;;;;;;1.92;100.00;98964.69;5054986;28;20387;-81
2021/01/30 02:20:58;;;;;;;;;;;;;;;1.96;100.00;98968.28;5054850;28;19987;-81
2021/01/30 02:23:56;;;;;;;;;;;;;;;1.88;100.00;98951.66;5055387;28;19948;-81
2021/01/30 02:26:48;;;;;;;;;;;;;;;1.88;100.00;98952.81;5054973;28;20379;-81
2021/01/30 02:29:33;;;;;;;;;;;;;;;1.89;100.00;98961.50;5055301;28;19925;-82
2021/01/30 02:32:19;;;;;;;;;;;;;;;1.86;100.00;98953.97;5054794;28;19929;-81
2021/01/30 02:34:51;;;;;;;;;;;;;;;1.84;100.00;98950.81;5054883;28;19925;-82
2021/01/30 02:37:19;;;;;;;;;;;;;;;1.80;100.00;98941.66;5054785;28;19925;-81
2021/01/30 02:39:52;;;;;;;;;;;;;;;1.79;100.00;98931.00;5071082;28;20011;-81
2021/01/30 02:42:30;;;;;;;;;;;;;;;1.83;100.00;98935.41;5055077;28;19925;-81
2021/01/30 02:45:04;;;;;;;;;;;;;;;1.80;100.00;98927.88;5054891;28;20368;-81
2021/01/30 02:47:33;;;;;;;;;;;;;;;1.77;100.00;98934.13;5054563;28;19967;-81
2021/01/30 02:50:06;;;;;;;;;;;;;;;1.77;100.00;98920.38;5021275;28;20026;-81
2021/01/30 02:52:33;;;;;;;;;;;;;;;1.75;100.00;98925.47;5087943;28;20380;-81
2021/01/30 02:55:01;;;;;;;;;;;;;;;1.74;100.00;98918.34;5054373;28;19970;-81
2021/01/30 02:57:28;;;;;;;;;;;;;;;1.72;100.00;98915.19;5070834;28;20348;-81
2021/01/30 02:59:59;;;;;;;;;;;;;;;1.71;100.00;98915.56;5021600;28;20364;-81
2021/01/30 03:02:26;;;;;;;;;;;;;;;1.75;100.00;98919.16;5087756;28;20018;-82
2021/01/30 03:04:55;;;;;;;;;;;;;;;1.74;100.00;98917.56;5054454;28;19937;-82
2021/01/30 03:07:51;;;;;;;;;;;;;;;1.75;100.00;98919.16;5037618;28;19932;-81
2021/01/30 03:10:36;;;;;;;;;;;;;;;1.73;100.00;98919.53;5013312;28;19925;-81
2021/01/30 03:13:08;;;;;;;;;;;;;;;1.73;100.00;98916.78;4997148;28;19972;-81
2021/01/30 03:15:34;;;;;;;;;;;;;;;1.69;100.00;98904.91;4997240;28;20343;-81
2021/01/30 03:18:02;;;;;;;;;;;;;;;1.70;100.00;98903.72;4996950;28;19931;-81
2021/01/30 03:20:30;;;;;;;;;;;;;;;1.69;100.00;98910.41;5013236;28;19926;-81
2021/01/30 03:22:58;;;;;;;;;;;;;;;1.69;100.00;98906.84;4996841;28;19933;-81
2021/01/30 03:25:26;;;;;;;;;;;;;;;1.67;100.00;98907.22;5013109;28;20392;-81
2021/01/30 03:27:55;;;;;;;;;;;;;;;1.63;100.00;98900.06;5013283;28;20028;-81
2021/01/30 03:30:22;;;;;;;;;;;;;;;1.63;100.00;98898.13;5013493;28;19976;-81
2021/01/30 03:32:48;;;;;;;;;;;;;;;1.61;100.00;98891.38;4996678;28;20022;-81
2021/01/30 03:35:15;;;;;;;;;;;;;;;1.57;100.00;98891.34;5013085;28;20026;-81
2021/01/30 03:37:42;;;;;;;;;;;;;;;1.54;100.00;98908.59;4996559;28;19926;-81
2021/01/30 03:40:10;;;;;;;;;;;;;;;1.53;100.00;98895.97;4996524;28;19933;-81
2021/01/30 03:42:37;;;;;;;;;;;;;;;1.49;100.00;98888.81;4996618;28;19957;-82
2021/01/30 03:45:05;;;;;;;;;;;;;;;1.45;100.00;98887.97;5012908;28;19925;-81
2021/01/30 03:47:32;;;;;;;;;;;;;;;1.41;100.00;98868.63;5014936;28;19932;-81
2021/01/30 03:49:59;;;;;;;;;;;;;;;1.42;100.00;98870.22;5054827;28;19929;-81
2021/01/30 03:52:27;;;;;;;;;;;;;;;1.40;100.00;98864.28;5053275;28;19932;-81
2021/01/30 03:54:53;;;;;;;;;;;;;;;1.38;100.00;98863.84;5054687;28;19978;-81
2021/01/30 03:57:20;;;;;;;;;;;;;;;1.36;100.00;98857.91;5053132;28;19925;-81
2021/01/30 03:59:48;;;;;;;;;;;;;;;1.34;100.00;98862.19;5069954;28;20014;-82
2021/01/30 04:02:14;;;;;;;;;;;;;;;1.34;100.00;98859.44;5036632;28;20386;-81
2021/01/30 04:04:43;;;;;;;;;;;;;;;1.37;100.00;98848.50;5053417;28;19970;-81
2021/01/30 04:07:10;;;;;;;;;;;;;;;1.37;100.00;98854.00;5053057;28;19925;-82
2021/01/30 04:09:37;;;;;;;;;;;;;;;1.37;100.00;98848.50;5069599;28;19925;-81
2021/01/30 04:12:04;;;;;;;;;;;;;;;1.40;100.00;98850.53;5069797;28;19925;-81
2021/01/30 04:14:30;;;;;;;;;;;;;;;1.39;100.00;98854.41;5052950;28;19932;-81
2021/01/30 04:16:57;;;;;;;;;;;;;;;1.41;100.00;98849.34;5052930;28;20442;-81
2021/01/30 04:19:24;;;;;;;;;;;;;;;1.38;100.00;98852.84;5069576;28;20379;-81
2021/01/30 04:21:50;;;;;;;;;;;;;;;1.40;100.00;98875.31;5036267;28;19925;-81
2021/01/30 04:24:17;;;;;;;;;;;;;;;1.43;100.00;98836.03;5053106;28;19925;-81
2021/01/30 04:26:47;;;;;;;;;;;;;;;1.41;100.00;98854.84;5036402;28;20069;-81
2021/01/30 04:29:14;;;;;;;;;;;;;;;1.43;100.00;98843.47;5036564;28;20055;-81
2021/01/30 04:31:41;;;;;;;;;;;;;;;1.44;100.00;98848.63;5052609;28;19924;-81
2021/01/30 04:34:08;;;;;;;;;;;;;;;1.45;100.00;98850.19;5053168;28;20392;-81
2021/01/30 04:36:35;;;;;;;;;;;;;;;1.47;100.00;98858.13;5053910;28;19971;-81
2021/01/30 04:39:02;;;;;;;;;;;;;;;1.42;100.00;98848.19;5053365;28;19925;-81
2021/01/30 04:41:48;;;;;;;;;;;;;;;1.42;100.00;98839.91;5052619;28;19987;-81
2021/01/30 04:44:18;;;;;;;;;;;;;;;1.40;100.00;98831.25;5052900;28;20334;-81
2021/01/30 04:46:47;;;;;;;;;;;;;;;1.37;100.00;98823.72;5052520;28;20350;-81
2021/01/30 04:49:14;;;;;;;;;;;;;;;1.39;100.00;98823.38;5036301;28;19967;-81
2021/01/30 04:51:47;;;;;;;;;;;;;;;1.40;100.00;98820.25;5052720;28;19932;-81
2021/01/30 04:54:29;;;;;;;;;;;;;;;1.37;100.00;98820.97;5036099;28;19925;-81
2021/01/30 04:57:14;;;;;;;;;;;;;;;1.42;100.00;98823.41;5052762;28;19924;-81
2021/01/30 04:59:59;;;;;;;;;;;;;;;1.38;100.00;98817.06;5036018;28;19924;-81
2021/01/30 05:02:32;;;;;;;;;;;;;;;1.36;100.00;98824.09;5053755;28;19925;-81
2021/01/30 05:04:59;;;;;;;;;;;;;;;1.34;100.00;98827.22;5035727;28;20288;-81
2021/01/30 05:07:32;;;;;;;;;;;;;;;1.33;100.00;98811.06;5035855;28;20447;-82
2021/01/30 05:10:02;;;;;;;;;;;;;;;1.35;100.00;98805.97;5052302;28;19936;-82
2021/01/30 05:12:49;;;;;;;;;;;;;;;1.35;100.00;98805.97;5019798;28;19925;-81
2021/01/30 05:15:16;;;;;;;;;;;;;;;1.30;100.00;98798.81;5035750;28;19928;-81
2021/01/30 05:17:48;;;;;;;;;;;;;;;1.32;100.00;98795.69;5052127;28;19929;-81
2021/01/30 05:20:15;;;;;;;;;;;;;;;1.31;100.00;98797.69;5052224;28;19924;-81
2021/01/30 05:22:43;;;;;;;;;;;;;;;1.30;100.00;98796.06;5069047;28;19971;-81
2021/01/30 05:25:12;;;;;;;;;;;;;;;1.31;100.00;98797.69;5035770;28;20410;-81
2021/01/30 05:27:59;;;;;;;;;;;;;;;1.29;100.00;98780.72;5052384;28;19925;-81
2021/01/30 05:30:40;;;;;;;;;;;;;;;1.29;100.00;98783.47;5052265;28;20372;-81
2021/01/30 05:33:19;;;;;;;;;;;;;;;1.32;100.00;98785.50;5052086;28;19925;-81
2021/01/30 05:35:53;;;;;;;;;;;;;;;1.30;100.00;98790.56;5068561;28;19932;-81
2021/01/30 05:38:22;;;;;;;;;;;;;;;1.31;100.00;98775.66;5069010;28;19952;-81
2021/01/30 05:40:55;;;;;;;;;;;;;;;1.30;100.00;98776.81;5053379;28;19925;-81
2021/01/30 05:43:33;;;;;;;;;;;;;;;1.31;100.00;98775.66;5053202;28;19924;-81
2021/01/30 05:46:00;;;;;;;;;;;;;;;1.30;100.00;98759.50;5035756;28;19949;-81
2021/01/30 05:48:35;;;;;;;;;;;;;;;1.31;100.00;98761.09;5068770;28;19987;-81
2021/01/30 05:51:04;;;;;;;;;;;;;;;1.29;100.00;98746.91;5069561;28;19925;-81
2021/01/30 05:53:35;;;;;;;;;;;;;;;1.28;100.00;98757.13;5055684;28;19931;-81
2021/01/30 05:56:01;;;;;;;;;;;;;;;1.27;100.00;98763.78;5055848;28;19933;-80
2021/01/30 05:58:31;;;;;;;;;;;;;;;1.26;100.00;98753.94;5055899;28;19924;-81
2021/01/30 06:01:16;;;;;;;;;;;;;;;1.26;100.00;98753.94;5055675;28;19931;-81
2021/01/30 06:03:53;;;;;;;;;;;;;;;1.29;100.00;98747.69;5056733;28;19932;-81
2021/01/30 06:06:20;;;;;;;;;;;;;;;1.29;100.00;98742.19;5072195;28;19932;-81
2021/01/30 06:08:57;;;;;;;;;;;;;;;1.29;100.00;98742.19;5055385;28;20296;-81
2021/01/30 06:11:24;;;;;;;;;;;;;;;1.26;100.00;98723.66;5055450;28;20006;-81
2021/01/30 06:13:55;;;;;;;;;;;;;;;1.28;100.00;98724.09;5055603;28;19925;-81
2021/01/30 06:16:39;;;;;;;;;;;;;;;1.26;100.00;98722.88;5056347;28;20384;-81
2021/01/30 06:19:14;;;;;;;;;;;;;;;1.27;100.00;98733.50;5056240;28;19925;-81
2021/01/30 06:21:41;;;;;;;;;;;;;;;1.27;100.00;98719.75;5056372;28;20521;-81
2021/01/30 06:24:09;;;;;;;;;;;;;;;1.25;100.00;98724.84;5055050;28;20323;-81
2021/01/30 06:26:47;;;;;;;;;;;;;;;1.28;100.00;98724.09;5055017;28;19924;-81
2021/01/30 06:29:22;;;;;;;;;;;;;;;1.28;100.00;98713.09;5055348;28;19929;-81
2021/01/30 06:31:49;;;;;;;;;;;;;;;1.27;100.00;98711.47;5054831;28;20315;-81
2021/01/30 06:34:15;;;;;;;;;;;;;;;1.29;100.00;98698.16;5055180;28;20268;-81
2021/01/30 06:36:47;;;;;;;;;;;;;;;1.29;100.00;98711.13;5054800;28;19924;-81
2021/01/30 06:39:14;;;;;;;;;;;;;;;1.26;100.00;98698.09;5056233;28;20399;-81
2021/01/30 06:41:42;;;;;;;;;;;;;;;1.26;100.00;98692.59;5055731;28;19925;-81
2021/01/30 06:44:11;;;;;;;;;;;;;;;1.23;100.00;98693.34;5054740;28;20569;-81
2021/01/30 06:46:57;;;;;;;;;;;;;;;1.19;100.00;98701.56;5054525;28;19966;-81
2021/01/30 06:49:23;;;;;;;;;;;;;;;1.20;100.00;98703.13;5054695;28;20372;-81
2021/01/30 06:51:50;;;;;;;;;;;;;;;1.21;100.00;98690.19;5054471;28;19925;-81
2021/01/30 06:54:22;;;;;;;;;;;;;;;1.20;100.00;98689.38;5055560;28;20335;-81
2021/01/30 06:57:07;;;;;;;;;;;;;;;1.18;100.00;98691.69;5054361;28;19991;-81
2021/01/30 06:59:39;;;;;;;;;;;;;;;1.18;100.00;98691.69;5054322;28;20392;-81
2021/01/30 07:02:18;;;;;;;;;;;;;;;1.20;100.00;98697.63;5054803;28;19931;-81
2021/01/30 07:04:56;;;;;;;;;;;;;;;1.19;100.00;98693.31;5054911;28;19925;-81
2021/01/30 07:07:23;;;;;;;;;;;;;;;1.16;100.00;98683.03;5054344;28;20449;-80
2021/01/30 07:10:05;;;;;;;;;;;;;;;1.16;100.00;98694.03;5055471;28;19973;-81
2021/01/30 07:12:47;;;;;;;;;;;;;;;1.18;100.00;98675.19;5071097;28;20384;-81
2021/01/30 07:15:13;;;;;;;;;;;;;;;1.20;100.00;98677.56;5037296;28;19959;-81
2021/01/30 07:17:58;;;;;;;;;;;;;;;1.17;100.00;98683.81;5055230;28;19925;-81
2021/01/30 07:20:29;;;;;;;;;;;;;;;1.16;100.00;98683.03;5053907;28;19931;-81
2021/01/30 07:23:11;;;;;;;;;;;;;;;1.13;100.00;98692.03;5037264;28;19932;-81
2021/01/30 07:25:46;;;;;;;;;;;;;;;1.15;100.00;98678.69;5054829;28;20380;-81
2021/01/30 07:28:20;;;;;;;;;;;;;;;1.12;100.00;98687.66;5053671;28;19925;-81
2021/01/30 07:30:56;;;;;;;;;;;;;;;1.13;100.00;98682.97;5053615;28;19925;-81
2021/01/30 07:33:32;;;;;;;;;;;;;;;1.15;100.00;98683.41;5054871;28;19925;-81
2021/01/30 07:36:03;;;;;;;;;;;;;;;1.11;100.00;98680.59;5053405;28;19924;-80
2021/01/30 07:38:37;;;;;;;;;;;;;;;1.09;100.00;98677.41;5054610;28;20013;-80
2021/01/30 07:41:27;;;;;;;;;;;;;;;1.06;100.00;98663.63;5053181;28;19936;-79
2021/01/30 07:44:23;;;;;;;;;;;;;;;1.02;100.00;98668.25;5048974;28;20024;-80
2021/01/30 07:46:57;;;;;;;;;;;;;;;1.06;100.00;98669.13;5023817;28;19932;-80
2021/01/30 07:49:27;;;;;;;;;;;;;;;1.07;100.00;98679.75;5055290;28;20382;-84
2021/01/30 07:51:54;;;;;;;;;;;;;;;1.07;100.00;98677.00;5020768;28;19974;-81
2021/01/30 07:54:21;;;;;;;;;;;;;;;1.06;100.00;98664.38;5036576;28;19924;-81
2021/01/30 07:56:54;;;;;;;;;;;;;;;1.06;100.00;98678.16;5036833;28;19983;-81
2021/01/30 07:59:27;;;;;;;;;;;;;;;1.06;100.00;98672.66;5020595;28;19924;-82
2021/01/30 08:02:19;;;;;;;;;;;;;;;1.04;100.00;98676.94;5054397;28;19925;-81
2021/01/30 08:05:04;;;;;;;;;;;;;;;1.01;100.00;98670.22;5021186;28;19971;-81
2021/01/30 08:07:46;;;;;;;;;;;;;;;1.05;100.00;98682.06;5053524;28;19924;-81
2021/01/30 08:10:13;;;;;;;;;;;;;;;1.05;100.00;98671.06;5053288;28;20007;-81
2021/01/30 08:12:48;;;;;;;;;;;;;;;1.00;100.00;98668.63;5052666;28;20398;-81
2021/01/30 08:15:22;;;;;;;;;;;;;;;0.92;100.00;98666.94;5053768;28;19924;-81
2021/01/30 08:18:03;;;;;;;;;;;;;;;0.89;100.00;98664.94;5054222;28;19924;-81
2021/01/30 08:20:30;;;;;;;;;;;;;;;0.89;100.00;98673.19;5053316;28;20394;-81
2021/01/30 08:23:00;;;;;;;;;;;;;;;0.89;100.00;98662.19;5052846;28;19932;-81
2021/01/30 08:25:46;;;;;;;;;;;;;;;0.88;100.00;98668.06;5019918;28;19932;-81
2021/01/30 08:28:19;;;;;;;;;;;;;;;0.84;100.00;98668.00;5052722;28;20011;-80
2021/01/30 08:30:50;;;;;;;;;;;;;;;0.80;100.00;98663.59;5036197;28;19932;-81
2021/01/30 08:33:17;;;;;;;;;;;;;;;0.83;100.00;98684.88;5052736;28;19931;-80
2021/01/30 08:35:46;;;;;;;;;;;;;;;0.86;100.00;98679.44;5052844;28;19935;-80
2021/01/30 08:38:16;;;;;;;;;;;;;;;0.92;100.00;98688.94;5052757;28;19925;-79
2021/01/30 08:41:01;;;;;;;;;;;;;;;0.93;100.00;98682.28;5053869;28;20454;-78
2021/01/30 08:43:34;;;;;;;;;;;;;;;0.99;100.00;98685.50;5053707;28;19925;-79
2021/01/30 08:46:19;;;;;;;;;;;;;;;1.01;100.00;98689.50;5036101;28;19932;-79
2021/01/30 08:48:58;;;;;;;;;;;;;;;0.98;100.00;98695.72;5052747;28;19964;-79
2021/01/30 08:51:25;;;;;;;;;;;;;;;1.03;100.00;98691.88;5053949;28;20063;-79
2021/01/30 08:53:52;;;;;;;;;;;;;;;1.00;100.00;98701.63;5036267;28;19954;-79
2021/01/30 08:56:37;;;;;;;;;;;;;;;1.00;100.00;98698.88;5052455;28;19960;-82
2021/01/30 08:59:03;;;;;;;;;;;;;;;0.97;100.00;98713.38;5053892;28;19960;-79
2021/01/30 09:01:36;;;;;;;;;;;;;;;0.98;100.00;98692.97;5053581;28;19925;-85
2021/01/30 09:04:22;;;;;;;;;;;;;;;1.00;100.00;98689.84;5052188;28;19925;-77
2021/01/30 09:06:51;;;;;;;;;;;;;;;1.04;100.00;98724.50;5052896;28;19925;-77
2021/01/30 09:09:19;;;;;;;;;;;;;;;1.02;100.00;98710.31;5052087;28;19934;-77
2021/01/30 09:11:56;;;;;;;;;;;;;;;0.99;100.00;98716.56;5052943;28;19932;-77
2021/01/30 09:14:22;;;;;;;;;;;;;;;1.00;100.00;98712.63;5052218;28;19924;-77
2021/01/30 09:16:49;;;;;;;;;;;;;;;1.02;100.00;98721.34;5051938;28;19925;-77
2021/01/30 09:19:21;;;;;;;;;;;;;;;1.07;100.00;98711.97;5052867;28;19992;-77
2021/01/30 09:21:59;;;;;;;;;;;;;;;1.10;100.00;98712.03;5052966;28;19932;-77
2021/01/30 09:24:26;;;;;;;;;;;;;;;1.08;100.00;98711.59;5053403;28;19925;-80
2021/01/30 09:27:02;;;;;;;;;;;;;;;1.08;100.00;98708.84;5055897;28;19928;-81
2021/01/30 09:29:40;;;;;;;;;;;;;;;1.08;100.00;98728.09;5057611;28;19925;-80
2021/01/30 09:32:08;;;;;;;;;;;;;;;1.08;100.00;98738.31;5056075;28;19974;-79
2021/01/30 09:34:43;;;;;;;;;;;;;;;1.01;100.00;98699.69;5057119;28;19931;-79
2021/01/30 09:37:25;;;;;;;;;;;;;;;0.99;100.00;98694.56;5055978;28;19931;-79
2021/01/30 09:39:57;;;;;;;;;;;;;;;0.96;100.00;98692.53;5055917;28;19928;-78
2021/01/30 09:42:25;;;;;;;;;;;;;;;0.90;100.00;98694.03;5051536;28;20011;-81
2021/01/30 09:45:03;;;;;;;;;;;;;;;0.85;100.00;98688.81;5053029;28;19932;-78
2021/01/30 09:47:30;;;;;;;;;;;;;;;0.87;100.00;98689.25;5052615;28;20027;-82
2021/01/30 09:49:59;;;;;;;;;;;;;;;0.88;100.00;98704.59;5052457;28;19955;-82
2021/01/30 09:52:26;;;;;;;;;;;;;;;0.93;100.00;98692.47;5052603;28;20360;-81
2021/01/30 09:55:13;;;;;;;;;;;;;;;0.95;100.00;98688.22;5052726;28;19986;-81
2021/01/30 10:01:01;;;;;;;;;;;;;;;1.00;100.00;98695.34;5015862;28;19987;-84
2021/01/30 10:03:37;;;;;;;;;;;;;;;1.05;100.00;98686.78;5069304;28;20319;-81
2021/01/30 10:06:14;;;;;;;;;;;;;;;1.08;100.00;98692.34;5053030;28;19960;-82
2021/01/30 10:08:42;;;;;;;;;;;;;;;1.11;100.00;98694.34;5052947;28;19929;-79
2021/01/30 10:11:15;;;;;;;;;;;;;;;1.13;100.00;98700.28;5052123;28;19971;-81
2021/01/30 10:13:50;;;;;;;;;;;;;;;1.12;100.00;98698.69;5035687;28;19940;-79
2021/01/30 10:16:18;;;;;;;;;;;;;;;1.06;100.00;98700.16;5085300;28;20352;-80
2021/01/30 10:18:48;;;;;;;;;;;;;;;0.93;100.00;98701.53;5035334;28;19925;-79
2021/01/30 10:21:26;;;;;;;;;;;;;;;0.89;100.00;98700.69;5050499;28;19948;-84
2021/01/30 10:23:54;;;;;;;;;;;;;;;0.84;100.00;98705.69;5036182;28;19933;-84
2021/01/30 10:26:23;;;;;;;;;;;;;;;0.82;100.00;98683.28;5053643;28;19932;-81
2021/01/30 10:28:51;;;;;;;;;;;;;;;0.81;100.00;98682.47;5037265;28;20032;-81
2021/01/30 10:31:23;;;;;;;;;;;;;;;0.82;100.00;98694.28;5053846;28;19925;-80
2021/01/30 10:33:53;;;;;;;;;;;;;;;0.80;100.00;98694.66;5055198;28;19932;-82
2021/01/30 10:36:21;;;;;;;;;;;;;;;0.81;100.00;98698.19;5034344;28;20055;-84
2021/01/30 10:38:50;;;;;;;;;;;;;;;0.80;100.00;98708.41;5034534;28;19932;-83
2021/01/30 10:41:19;;;;;;;;;;;;;;;0.80;100.00;98696.59;5018677;28;19925;-83
2021/01/30 10:43:58;;;;;;;;;;;;;;;0.79;100.00;98712.28;5034889;28;19932;-82
2021/01/30 10:46:34;;;;;;;;;;;;;;;0.81;100.00;98720.97;5051661;28;19932;-82
2021/01/30 10:49:02;;;;;;;;;;;;;;;0.88;100.00;98736.81;5034842;28;19931;-83
2021/01/30 10:51:31;;;;;;;;;;;;;;;0.96;100.00;98733.81;5035843;28;20063;-85
2021/01/30 10:54:10;;;;;;;;;;;;;;;1.03;100.00;98755.94;5067630;28;19929;-83
2021/01/30 10:56:37;;;;;;;;;;;;;;;1.08;100.00;98757.56;5044253;28;19925;-85
2021/01/30 10:59:19;;;;;;;;;;;;;;;1.12;100.00;98759.22;5054852;28;19935;-81
2021/01/30 11:01:46;;;;;;;;;;;;;;;1.15;100.00;98758.47;5055773;28;20006;-83
2021/01/30 11:04:22;;;;;;;;;;;;;;;1.15;100.00;98761.22;5055519;28;19924;-84
2021/01/30 11:06:49;;;;;;;;;;;;;;;1.18;100.00;98779.75;5037731;28;19931;-84
2021/01/30 11:09:21;;;;;;;;;;;;;;;1.16;100.00;98757.34;5021894;28;19925;-82
2021/01/30 11:11:52;;;;;;;;;;;;;;;1.15;100.00;98757.69;5054654;28;20011;-80
2021/01/30 11:14:29;;;;;;;;;;;;;;;1.18;100.00;98752.22;5055603;28;19928;-82
2021/01/30 11:16:56;;;;;;;;;;;;;;;1.21;100.00;98745.22;5054060;28;19968;-82
2021/01/30 11:19:27;;;;;;;;;;;;;;;1.18;100.00;98768.75;5054112;28;20329;-80
2021/01/30 11:22:09;;;;;;;;;;;;;;;1.13;100.00;98749.81;5038113;28;19932;-85
2021/01/30 11:24:46;;;;;;;;;;;;;;;1.07;100.00;98751.28;5054053;28;19926;-79
2021/01/30 11:27:49;;;;;;;;;;;;;;;1.10;100.00;98731.28;5055228;28;19929;-82
2021/01/30 11:30:18;;;;;;;;;;;;;;;1.13;100.00;98751.75;5013742;28;19925;-81
2021/01/30 11:33:19;;;;;;;;;;;;;;;1.03;100.00;98750.41;4999332;28;20032;-81
2021/01/30 11:35:52;;;;;;;;;;;;;;;1.00;100.00;98737.41;5013295;28;19932;-81
2021/01/30 11:38:20;;;;;;;;;;;;;;;1.01;100.00;98763.78;5013182;28;19925;-80
2021/01/30 11:40:49;;;;;;;;;;;;;;;1.01;100.00;98762.97;5013886;28;19931;-86
2021/01/30 11:43:15;;;;;;;;;;;;;;;1.01;100.00;98773.97;4980763;28;19929;-84
2021/01/30 11:45:42;;;;;;;;;;;;;;;0.98;100.00;98786.50;5012808;28;19926;-80
2021/01/30 11:48:11;;;;;;;;;;;;;;;0.97;100.00;98779.41;4996623;28;19925;-83
2021/01/30 11:50:38;;;;;;;;;;;;;;;0.99;100.00;98771.59;4996270;28;19973;-82
2021/01/30 11:53:08;;;;;;;;;;;;;;;1.09;100.00;98776.47;4980877;28;20392;-82
2021/01/30 11:55:35;;;;;;;;;;;;;;;1.15;100.00;98786.00;4997460;28;19949;-84
2021/01/30 11:58:02;;;;;;;;;;;;;;;1.17;100.00;98791.94;4980715;28;19968;-82
2021/01/30 12:00:29;;;;;;;;;;;;;;;1.16;100.00;98804.13;5012466;28;20297;-83
2021/01/30 12:02:59;;;;;;;;;;;;;;;1.15;100.00;98797.00;4980260;28;19926;-84
2021/01/30 12:05:27;;;;;;;;;;;;;;;1.14;100.00;98792.66;5053184;28;20300;-83
2021/01/30 12:07:54;;;;;;;;;;;;;;;1.18;100.00;98817.50;5053283;28;19933;-83
2021/01/30 12:10:21;;;;;;;;;;;;;;;1.20;100.00;98810.47;5054568;28;19948;-85
2021/01/30 12:12:47;;;;;;;;;;;;;;;1.29;100.00;98807.44;5054361;28;19925;-82
2021/01/30 12:15:15;;;;;;;;;;;;;;;1.30;100.00;98820.84;5053150;28;19932;-83
2021/01/30 12:17:44;;;;;;;;;;;;;;;1.36;100.00;98837.88;5053081;28;20712;-82
2021/01/30 12:20:19;;;;;;;;;;;;;;;1.38;100.00;98821.75;5053788;28;19974;-85
2021/01/30 12:22:47;;;;;;;;;;;;;;;1.41;100.00;98824.56;5036420;28;19933;-80
2021/01/30 12:25:14;;;;;;;;;;;;;;;1.46;100.00;98828.97;5053177;28;20331;-81
2021/01/30 12:27:41;;;;;;;;;;;;;;;1.44;100.00;98818.34;5053633;28;19986;-82
2021/01/30 12:30:08;;;;;;;;;;;;;;;1.40;100.00;98834.00;5053060;28;20334;-80
2021/01/30 12:32:35;;;;;;;;;;;;;;;1.42;100.00;98819.88;5053218;28;20408;-80
2021/01/30 12:35:06;;;;;;;;;;;;;;;1.48;100.00;98821.16;5053915;28;20387;-80
2021/01/30 12:37:33;;;;;;;;;;;;;;;1.44;100.00;98834.84;5052961;28;19929;-80
2021/01/30 12:40:00;;;;;;;;;;;;;;;1.39;100.00;98824.13;5044048;28;19929;-80
2021/01/30 12:42:27;;;;;;;;;;;;;;;1.39;100.00;98812.34;5049705;28;19968;-79
2021/01/30 12:44:54;;;;;;;;;;;;;;;1.39;100.00;98804.09;5049400;28;19933;-81
2021/01/30 12:47:22;;;;;;;;;;;;;;;1.40;100.00;98814.72;5032734;28;19925;-82
2021/01/30 12:49:59;;;;;;;;;;;;;;;1.42;100.00;98808.88;5049288;28;19975;-81
2021/01/30 12:52:25;;;;;;;;;;;;;;;1.42;100.00;98812.38;5033341;28;19932;-81
2021/01/30 12:54:52;;;;;;;;;;;;;;;1.47;100.00;98792.03;5050579;28;19925;-81
2021/01/30 12:57:19;;;;;;;;;;;;;;;1.45;100.00;98805.38;5050134;28;20011;-81
2021/01/30 12:59:45;;;;;;;;;;;;;;;1.46;100.00;98806.94;5050145;28;19929;-81
2021/01/30 13:02:12;;;;;;;;;;;;;;;1.48;100.00;98799.94;5054561;28;19925;-81
2021/01/30 13:04:39;;;;;;;;;;;;;;;1.50;100.00;98799.56;5037197;28;20567;-81
2021/01/30 13:07:07;;;;;;;;;;;;;;;1.49;100.00;98796.00;5055038;28;19935;-81
2021/01/30 13:09:34;;;;;;;;;;;;;;;1.45;100.00;98800.63;5069996;28;19952;-81
2021/01/30 13:12:01;;;;;;;;;;;;;;;1.42;100.00;98795.88;5053815;28;19924;-81
2021/01/30 13:14:28;;;;;;;;;;;;;;;1.43;100.00;98796.69;5056921;28;19936;-84